Terminal Aerodrome Forecast
Issued by NWS Sterling, VA

Current Version | Previous Version | Graphics & Text | Print | Product List | Glossary On
Versions: 1 2 3 4 5 6 7 8 9 10 11
000
FTUS41 KLWX 192300
TAFMRB
TAF
KMRB 192338Z 2000/2024 32008KT P6SM SCT045
     FM200600 32004KT P6SM FEW040
     FM201700 32004KT P6SM BKN090=

USA.gov is the U.S. government's official web portal to all federal, state and local government web resources and services.